createdAt,value
2019-01-16T00:00:24.787Z,32.17
2019-01-16T00:03:13.108Z,30.32
2019-01-16T00:06:11.710Z,22.45
2019-01-16T00:09:13.264Z,23.38
2019-01-16T00:12:03.870Z,27.07
2019-01-16T00:14:51.015Z,33.10
2019-01-16T00:17:49.435Z,26.45
2019-01-16T00:20:54.316Z,24.23
2019-01-16T00:23:50.016Z,35.25
2019-01-16T00:26:48.360Z,22.58
2019-01-16T00:29:36.797Z,26.77
2019-01-16T00:32:15.567Z,25.30
2019-01-16T00:35:14.235Z,27.73
2019-01-16T00:37:58.449Z,24.72
2019-01-16T00:40:53.756Z,24.52
2019-01-16T00:44:01.667Z,28.32
2019-01-16T00:46:54.153Z,22.80
2019-01-16T00:49:35.461Z,30.65
2019-01-16T00:52:19.291Z,27.65
2019-01-16T00:55:21.202Z,30.35
2019-01-16T00:58:22.581Z,34.75
2019-01-16T01:01:10.967Z,23.60
2019-01-16T01:04:08.331Z,25.00
2019-01-16T01:06:57.833Z,24.75
2019-01-16T01:09:58.733Z,30.80
2019-01-16T01:12:47.513Z,26.45
2019-01-16T01:15:40.465Z,22.70
2019-01-16T01:18:32.405Z,22.62
2019-01-16T01:21:20.060Z,18.70
2019-01-16T01:24:14.668Z,19.63
2019-01-16T01:27:07.201Z,18.15
2019-01-16T01:29:54.332Z,17.83
2019-01-16T01:32:46.496Z,29.77
2019-01-16T01:35:38.826Z,23.60
2019-01-16T01:38:40.095Z,18.70
2019-01-16T01:41:35.902Z,20.15
2019-01-16T01:44:25.522Z,33.35
2019-01-16T01:47:24.279Z,22.60
2019-01-16T01:50:22.773Z,21.95
2019-01-16T01:53:12.191Z,29.70
2019-01-16T01:56:04.682Z,20.85
2019-01-16T01:59:00.018Z,20.72
2019-01-16T02:01:43.130Z,29.63
2019-01-16T02:04:35.724Z,28.30
2019-01-16T02:07:24.313Z,23.15
2019-01-16T02:10:08.064Z,29.45
2019-01-16T02:12:57.452Z,21.50
2019-01-16T02:15:56.050Z,26.80
2019-01-16T02:18:47.498Z,31.80
2019-01-16T02:21:41.716Z,32.25
2019-01-16T02:24:37.385Z,43.25
2019-01-16T02:27:35.902Z,30.57
2019-01-16T02:30:28.948Z,25.25
2019-01-16T02:33:17.327Z,27.90
2019-01-16T02:36:15.993Z,32.58
2019-01-16T02:39:04.109Z,21.90
2019-01-16T02:41:52.463Z,28.05
2019-01-16T02:44:54.041Z,39.33
2019-01-16T02:47:46.252Z,25.85
2019-01-16T02:50:38.552Z,27.10
2019-01-16T02:53:30.910Z,28.57
2019-01-16T02:56:18.431Z,24.00
2019-01-16T02:59:20.028Z,28.65
2019-01-16T03:02:08.357Z,33.50
2019-01-16T03:04:50.487Z,31.95
2019-01-16T03:07:35.004Z,33.15
2019-01-16T03:10:18.067Z,25.05
2019-01-16T03:13:16.478Z,28.30
2019-01-16T03:16:15.133Z,29.52
2019-01-16T03:19:04.938Z,27.07
2019-01-16T03:22:00.618Z,24.67
2019-01-16T03:24:58.866Z,27.52
2019-01-16T03:27:39.716Z,33.67
2019-01-16T05:03:48.375Z,20.88
2019-01-16T05:06:36.415Z,23.10
2019-01-16T05:09:20.987Z,23.38
2019-01-16T05:12:09.287Z,20.00
2019-01-16T05:14:57.903Z,20.77
2019-01-16T05:17:46.346Z,22.80
2019-01-16T05:20:48.300Z,27.80
2019-01-16T05:23:40.906Z,23.77
2019-01-16T05:26:27.791Z,24.25
2019-01-16T05:29:26.961Z,30.62
2019-01-16T05:32:16.875Z,25.08
2019-01-16T05:35:04.937Z,25.50
2019-01-16T05:38:03.510Z,22.87
2019-01-16T05:41:05.232Z,24.80
2019-01-16T05:43:57.438Z,27.73
2019-01-16T05:46:59.116Z,25.00
2019-01-16T05:49:49.218Z,20.52
2019-01-16T05:52:37.428Z,22.67
2019-01-16T05:55:25.970Z,23.85
2019-01-16T05:58:14.287Z,20.68
2019-01-16T06:01:02.315Z,27.30
2019-01-16T06:03:55.756Z,26.45
2019-01-16T06:06:44.042Z,28.87
2019-01-16T06:09:42.891Z,24.70
2019-01-16T06:12:36.448Z,25.30
2019-01-16T06:15:22.563Z,21.93
2019-01-16T06:18:10.930Z,25.60
2019-01-16T06:21:15.600Z,23.07
2019-01-16T06:24:05.087Z,28.35
2019-01-16T06:26:53.067Z,29.40
2019-01-16T06:29:45.464Z,26.02
2019-01-16T06:32:50.224Z,28.35
2019-01-16T06:35:38.247Z,35.25
2019-01-16T06:38:27.723Z,25.90
2019-01-16T06:41:10.926Z,27.50
2019-01-16T06:43:49.439Z,25.00
2019-01-16T06:46:41.648Z,26.80
2019-01-16T06:49:29.964Z,32.10
2019-01-16T06:52:19.570Z,27.02
2019-01-16T06:55:13.973Z,30.23
2019-01-16T06:58:02.431Z,31.73
2019-01-16T07:01:00.970Z,27.20
2019-01-16T07:03:49.116Z,26.20
2019-01-16T07:06:37.337Z,28.90
2019-01-16T07:09:21.765Z,30.82
2019-01-16T07:12:14.042Z,34.40
2019-01-16T07:15:02.401Z,29.53
2019-01-16T07:17:45.912Z,35.28
2019-01-16T07:20:41.481Z,36.88
2019-01-16T07:23:33.755Z,28.75
2019-01-16T07:26:25.051Z,36.40
2019-01-16T07:29:11.837Z,33.67
2019-01-16T07:32:04.236Z,34.80
2019-01-16T07:34:51.323Z,36.13
2019-01-16T07:37:47.703Z,33.60
2019-01-16T07:40:49.174Z,32.60
2019-01-16T07:43:33.807Z,32.48
2019-01-16T07:46:38.646Z,35.20
2019-01-16T07:49:26.874Z,35.50
2019-01-16T07:52:11.926Z,39.57
2019-01-16T07:55:10.725Z,36.00
2019-01-16T07:58:12.239Z,33.60
2019-01-16T08:01:01.819Z,30.25
2019-01-16T08:03:54.295Z,39.10
2019-01-16T08:06:42.463Z,38.75
2019-01-16T08:09:25.662Z,31.48
2019-01-16T08:12:15.690Z,32.05
2019-01-16T08:15:08.421Z,35.80
2019-01-16T08:17:49.891Z,36.03
2019-01-16T08:20:38.123Z,34.55
2019-01-16T08:23:26.675Z,35.05
2019-01-16T08:26:13.671Z,26.85
2019-01-16T08:29:09.191Z,21.37
2019-01-16T08:31:58.630Z,33.13
2019-01-16T08:35:06.570Z,30.35
2019-01-16T08:38:02.257Z,28.65
2019-01-16T08:41:01.950Z,28.80
2019-01-16T08:43:51.499Z,31.87
2019-01-16T08:46:34.952Z,35.10
2019-01-16T08:49:23.133Z,27.30
2019-01-16T08:52:22.812Z,30.70
2019-01-16T08:55:24.220Z,24.40
2019-01-16T08:58:12.190Z,23.53
2019-01-16T09:01:10.563Z,23.83
2019-01-16T09:04:06.095Z,21.25
2019-01-16T09:06:54.420Z,21.52
2019-01-16T09:09:34.066Z,24.50
2019-01-16T09:12:22.403Z,21.45
2019-01-16T09:15:11.244Z,27.03
2019-01-16T09:18:01.349Z,23.87
2019-01-16T09:21:09.319Z,23.52
2019-01-16T09:23:58.875Z,17.75
2019-01-16T09:26:50.860Z,16.37
2019-01-16T09:29:43.198Z,22.07
2019-01-16T10:20:14.853Z,16.85
2019-01-16T10:23:01.749Z,18.37
2019-01-16T10:25:49.981Z,17.23
2019-01-16T10:28:38.419Z,12.70
2019-01-16T10:31:23.583Z,14.63
2019-01-16T10:34:12.012Z,14.13
2019-01-16T10:37:00.514Z,14.28
2019-01-16T10:39:48.529Z,17.85
2019-01-16T10:42:35.223Z,20.30
2019-01-16T10:45:33.291Z,15.80
2019-01-16T10:48:28.428Z,15.60
2019-01-16T10:51:17.853Z,15.85
2019-01-16T10:54:06.844Z,16.27
2019-01-16T10:56:59.289Z,18.73
2019-01-16T10:59:43.526Z,16.00
2019-01-16T11:02:31.823Z,18.35
2019-01-16T11:05:27.863Z,19.83
2019-01-16T11:08:08.137Z,17.63
2019-01-16T11:10:51.613Z,19.57
2019-01-16T11:13:41.163Z,18.30
2019-01-16T11:16:46.825Z,19.25
2019-01-16T11:19:34.834Z,17.82
2019-01-16T11:22:30.647Z,18.92
2019-01-16T11:25:20.075Z,18.82
2019-01-16T11:28:15.542Z,16.10
2019-01-16T11:30:59.595Z,15.83
2019-01-16T11:33:47.841Z,18.02
2019-01-16T11:36:49.641Z,18.23
2019-01-16T11:39:31.834Z,20.12
2019-01-16T11:42:20.355Z,19.05
2019-01-16T11:45:25.127Z,18.87
2019-01-16T11:48:17.611Z,20.02
2019-01-16T11:51:22.433Z,21.55
2019-01-16T11:54:10.360Z,22.42
2019-01-16T11:56:57.145Z,18.45
2019-01-16T11:59:52.563Z,24.37
2019-01-16T12:02:54.294Z,21.30
2019-01-16T12:05:46.558Z,26.33
2019-01-16T12:08:27.823Z,23.55
2019-01-16T12:11:23.734Z,20.92
2019-01-16T12:14:05.954Z,20.90
2019-01-16T12:16:55.352Z,25.90
2019-01-16T12:19:44.827Z,24.87
2019-01-16T12:22:33.206Z,21.97
2019-01-16T12:25:12.380Z,25.97
2019-01-16T12:28:07.910Z,23.60
2019-01-16T12:30:50.928Z,25.72
2019-01-16T12:33:38.391Z,22.85
2019-01-16T12:36:23.439Z,21.30
2019-01-16T12:39:11.458Z,24.12
2019-01-16T12:42:04.164Z,22.10
2019-01-16T12:44:52.376Z,21.97
2019-01-16T12:47:40.920Z,24.15
2019-01-16T12:50:19.281Z,21.40
2019-01-16T12:53:23.907Z,25.40
2019-01-16T12:56:28.555Z,21.17
2019-01-16T12:59:16.923Z,24.87
2019-01-16T13:02:05.237Z,18.67
2019-01-16T13:04:54.305Z,21.37
2019-01-16T13:07:42.428Z,17.77
2019-01-16T13:10:41.510Z,17.77
2019-01-16T13:13:30.893Z,17.62
2019-01-16T13:16:24.075Z,15.85
2019-01-16T13:19:04.711Z,15.68
2019-01-16T13:21:52.371Z,14.00
2019-01-16T13:24:44.262Z,20.50
2019-01-16T13:27:25.489Z,14.20
2019-01-16T13:30:30.138Z,14.93
2019-01-16T13:33:18.328Z,15.72
2019-01-16T13:36:06.479Z,17.27
2019-01-16T13:38:53.732Z,18.65
2019-01-16T13:41:32.631Z,19.50
2019-01-16T13:44:21.019Z,19.45
2019-01-16T13:47:13.545Z,21.35
2019-01-16T13:50:15.370Z,20.90
2019-01-16T13:53:19.913Z,22.37
2019-01-16T13:56:09.302Z,24.52
2019-01-16T13:58:58.747Z,21.12
2019-01-16T14:01:39.354Z,19.67
2019-01-16T14:04:31.914Z,22.02
2019-01-16T14:07:21.382Z,23.70
2019-01-16T14:10:09.442Z,23.12
2019-01-16T14:12:58.828Z,23.02
2019-01-16T14:15:48.607Z,21.23
2019-01-16T14:18:40.951Z,24.15
2019-01-16T14:21:53.026Z,27.87
2019-01-16T14:28:40.721Z,26.27
2019-01-16T14:31:33.105Z,22.35
2019-01-16T14:34:20.919Z,24.15
2019-01-16T14:37:28.871Z,22.60
2019-01-16T14:40:16.980Z,18.42
2019-01-16T14:43:01.974Z,20.40
2019-01-16T14:45:50.528Z,20.43
2019-01-16T14:48:58.573Z,21.90
2019-01-16T14:51:50.700Z,19.80
2019-01-16T14:54:38.911Z,19.97
2019-01-16T14:57:40.535Z,20.63
2019-01-16T15:00:32.635Z,18.95
2019-01-16T15:03:23.846Z,26.85
2019-01-16T15:06:04.530Z,28.85
2019-01-16T15:09:12.278Z,22.55
2019-01-16T15:12:00.464Z,28.92
2019-01-16T15:15:04.743Z,33.25
2019-01-16T15:17:43.624Z,28.60
2019-01-16T15:20:31.336Z,29.30
2019-01-16T15:23:19.593Z,27.35
2019-01-16T15:26:00.048Z,28.07
2019-01-16T15:28:49.724Z,28.05
2019-01-16T15:42:33.345Z,21.27
2019-01-16T15:48:46.874Z,20.97
2019-01-16T15:51:35.888Z,20.20
2019-01-16T15:54:29.108Z,18.17
2019-01-16T15:57:21.751Z,21.55
2019-01-16T16:00:20.619Z,19.85
2019-01-16T16:03:10.361Z,23.27
2019-01-16T16:06:06.005Z,19.92
2019-01-16T16:09:04.888Z,19.23
2019-01-16T16:11:53.689Z,19.10
2019-01-16T16:14:43.668Z,19.85
2019-01-16T16:17:50.321Z,20.65
2019-01-16T16:20:44.722Z,22.25
2019-01-16T16:27:08.415Z,23.92
2019-01-16T16:31:20.723Z,26.23
2019-01-16T16:34:11.782Z,22.75
2019-01-16T16:37:19.422Z,21.37
2019-01-16T16:40:03.520Z,23.05
2019-01-16T16:43:06.321Z,23.50
2019-01-16T16:45:55.048Z,21.10
2019-01-16T16:48:43.253Z,23.32
2019-01-16T16:51:31.745Z,20.92
2019-01-16T16:54:39.678Z,22.50
2019-01-16T16:57:25.132Z,26.55
2019-01-16T17:00:04.712Z,20.35
2019-01-16T17:03:00.276Z,23.70
2019-01-16T17:05:55.571Z,22.10
2019-01-16T17:08:43.955Z,22.48
2019-01-16T17:11:32.311Z,28.42
2019-01-16T17:14:24.026Z,24.45
2019-01-16T17:17:23.206Z,26.20
2019-01-16T17:20:11.977Z,25.75
2019-01-16T17:23:11.121Z,23.00
2019-01-16T17:26:00.646Z,31.50
2019-01-16T17:28:50.928Z,29.37
2019-01-16T17:31:42.275Z,28.80
2019-01-16T17:34:26.101Z,27.00
2019-01-16T17:37:28.852Z,30.80
2019-01-16T17:44:03.297Z,30.48
2019-01-16T17:46:56.966Z,27.15
2019-01-16T17:49:49.579Z,35.38
2019-01-16T17:53:04.950Z,30.40
2019-01-16T17:55:53.391Z,38.92
2019-01-16T17:58:49.135Z,31.20
2019-01-16T18:01:45.319Z,39.65
2019-01-16T18:05:02.432Z,41.98
2019-01-16T18:07:52.129Z,41.05
2019-01-16T18:10:44.209Z,49.80
2019-01-16T18:13:33.131Z,47.00
2019-01-16T18:16:25.872Z,45.67
2019-01-16T18:19:31.689Z,40.28
2019-01-16T18:22:21.312Z,45.92
2019-01-16T18:25:26.114Z,39.42
2019-01-16T18:28:12.836Z,35.60
2019-01-16T18:31:00.958Z,37.90
2019-01-16T18:33:51.161Z,47.20
2019-01-16T18:36:39.863Z,39.67
2019-01-16T18:39:29.859Z,42.05
2019-01-16T18:42:25.308Z,39.65
2019-01-16T18:45:13.514Z,48.50
2019-01-16T18:47:52.648Z,44.40
2019-01-16T18:50:41.402Z,42.78
2019-01-16T18:53:29.445Z,37.97
2019-01-16T18:56:18.848Z,36.73
2019-01-16T18:59:01.835Z,45.30
2019-01-16T19:01:51.273Z,40.03
2019-01-16T19:04:41.944Z,42.62
2019-01-16T19:07:43.014Z,32.63
2019-01-16T19:10:23.736Z,34.40
2019-01-16T19:13:11.769Z,32.00
2019-01-16T19:16:01.961Z,32.37
2019-01-16T19:19:06.920Z,29.00
2019-01-16T19:22:05.433Z,31.30
2019-01-16T19:25:10.225Z,34.13
2019-01-16T19:27:55.246Z,31.95
2019-01-16T19:30:34.009Z,26.27
2019-01-16T19:33:17.847Z,30.02
2019-01-16T19:36:02.355Z,29.35
2019-01-16T19:38:47.278Z,29.25
2019-01-16T19:41:28.485Z,32.87
2019-01-16T19:44:16.471Z,30.62
2019-01-16T19:46:57.740Z,31.73
2019-01-16T19:49:38.437Z,29.52
2019-01-16T19:52:20.086Z,34.25
2019-01-16T19:55:09.532Z,30.15
2019-01-16T19:57:57.609Z,36.17
2019-01-16T20:00:50.085Z,34.00
2019-01-16T20:03:48.857Z,36.17
2019-01-16T20:06:40.023Z,42.60
2019-01-16T20:09:28.727Z,33.08
2019-01-16T20:12:21.195Z,36.93
2019-01-16T20:15:09.252Z,37.65
2019-01-16T20:17:57.353Z,33.65
2019-01-16T20:20:45.419Z,38.90
2019-01-16T20:23:26.386Z,35.15
2019-01-16T20:26:27.314Z,40.30
2019-01-16T20:29:15.735Z,39.23
2019-01-16T20:32:08.953Z,43.63
2019-01-16T20:34:53.479Z,40.92
2019-01-16T20:37:46.003Z,42.55
2019-01-16T20:40:38.713Z,41.90
2019-01-16T20:43:27.014Z,37.90
2019-01-16T20:46:17.648Z,47.48
2019-01-16T20:49:19.516Z,41.98
2019-01-16T20:52:10.528Z,38.97
2019-01-16T20:54:59.989Z,40.90
2019-01-16T20:57:55.414Z,39.67
2019-01-16T21:00:44.011Z,38.38
2019-01-16T21:03:32.151Z,37.85
2019-01-16T21:06:30.996Z,41.92
2019-01-16T21:09:15.093Z,41.88
2019-01-16T21:12:04.640Z,43.73
2019-01-16T21:14:57.258Z,43.30
2019-01-16T21:17:53.766Z,48.70
2019-01-16T21:20:51.547Z,42.10
2019-01-16T21:23:38.717Z,42.58
2019-01-16T21:26:28.246Z,47.13
2019-01-16T21:29:21.166Z,42.60
2019-01-16T21:32:10.521Z,39.38
2019-01-16T21:34:58.514Z,49.23
2019-01-16T21:37:50.659Z,40.58
2019-01-16T21:40:38.882Z,39.95
2019-01-16T21:43:26.946Z,41.28
2019-01-16T21:46:16.323Z,41.28
2019-01-16T21:49:23.936Z,40.65
2019-01-16T21:52:16.029Z,36.17
2019-01-16T21:55:05.057Z,37.75
2019-01-16T21:57:57.697Z,43.60
2019-01-16T22:00:47.144Z,38.83
2019-01-16T22:03:35.445Z,40.15
2019-01-16T22:06:24.324Z,38.55
2019-01-16T22:09:15.351Z,33.73
2019-01-16T22:12:03.635Z,36.80
2019-01-16T22:15:11.543Z,43.95
2019-01-16T22:18:00.170Z,34.83
2019-01-16T22:20:49.655Z,36.58
2019-01-16T22:23:42.088Z,43.68
2019-01-16T22:26:30.391Z,39.85
2019-01-16T22:29:17.353Z,34.47
2019-01-16T22:31:59.874Z,38.83
2019-01-16T22:35:01.635Z,40.33
2019-01-16T22:37:51.634Z,39.92
2019-01-16T22:40:38.717Z,40.47
2019-01-16T22:43:25.893Z,34.23
2019-01-16T22:46:15.250Z,38.78
2019-01-16T22:49:05.532Z,39.98
2019-01-16T22:52:01.118Z,39.98
2019-01-16T22:54:48.458Z,42.65
2019-01-16T22:57:37.861Z,39.18
2019-01-16T23:00:42.433Z,36.85
2019-01-16T23:03:30.682Z,38.85
2019-01-16T23:06:20.081Z,43.55
2019-01-16T23:09:00.091Z,35.38
2019-01-16T23:11:48.389Z,37.58
2019-01-16T23:14:33.206Z,37.75
2019-01-16T23:17:14.327Z,34.50
2019-01-16T23:20:02.144Z,38.60
2019-01-16T23:22:48.040Z,38.38
2019-01-16T23:25:46.541Z,34.63
2019-01-16T23:28:34.998Z,33.63
2019-01-16T23:31:23.221Z,41.10
2019-01-16T23:34:15.425Z,37.93
2019-01-16T23:37:01.530Z,40.45
2019-01-16T23:39:54.075Z,36.08
2019-01-16T23:42:58.650Z,30.23
2019-01-16T23:45:50.987Z,38.33
2019-01-16T23:48:43.177Z,37.35
2019-01-16T23:51:32.682Z,31.65
2019-01-16T23:54:24.877Z,38.48
2019-01-16T23:57:12.541Z,45.40
